createdAt,value
2023-03-03T00:00:21.617Z,32.30
2023-03-03T00:01:21.602Z,31.50
2023-03-03T00:02:21.629Z,31.60
2023-03-03T00:03:21.737Z,30.10
2023-03-03T00:04:21.600Z,30.80
2023-03-03T00:05:21.575Z,31.20
2023-03-03T00:06:21.530Z,31.80
2023-03-03T00:07:21.518Z,33.20
2023-03-03T00:08:21.505Z,31.80
2023-03-03T00:09:21.546Z,31.60
2023-03-03T00:10:21.525Z,31.90
2023-03-03T00:11:21.487Z,31.60
2023-03-03T00:12:21.470Z,33.00
2023-03-03T00:13:21.452Z,32.90
2023-03-03T00:14:21.436Z,33.30
2023-03-03T00:15:21.435Z,32.80
2023-03-03T00:16:21.572Z,32.60
2023-03-03T00:17:21.411Z,33.20
2023-03-03T00:18:21.411Z,32.40
2023-03-03T00:19:21.422Z,32.10
2023-03-03T00:20:21.433Z,32.40
2023-03-03T00:21:21.394Z,30.80
2023-03-03T00:22:21.354Z,32.30
2023-03-03T00:23:21.352Z,31.20
2023-03-03T00:24:21.361Z,33.40
2023-03-03T00:25:21.314Z,33.00
2023-03-03T00:26:21.314Z,31.70
2023-03-03T00:27:21.313Z,32.40
2023-03-03T00:28:21.287Z,33.30
2023-03-03T00:29:21.300Z,31.10
2023-03-03T00:30:21.262Z,33.10
2023-03-03T00:31:21.324Z,33.30
2023-03-03T00:32:21.340Z,31.80
2023-03-03T00:33:21.231Z,31.30
2023-03-03T00:34:21.245Z,32.00
2023-03-03T00:35:21.307Z,31.90
2023-03-03T00:36:21.210Z,32.30
2023-03-03T00:37:21.197Z,30.10
2023-03-03T00:38:21.195Z,31.60
2023-03-03T00:39:21.217Z,32.30
2023-03-03T00:40:21.186Z,29.30
2023-03-03T00:41:21.157Z,30.20
2023-03-03T00:42:21.144Z,30.80
2023-03-03T00:43:21.152Z,30.60
2023-03-03T00:44:21.132Z,30.20
2023-03-03T00:45:21.150Z,29.80
2023-03-03T00:46:21.143Z,30.30
2023-03-03T00:47:21.091Z,31.10
2023-03-03T00:48:21.066Z,29.30
2023-03-03T00:49:21.066Z,28.40
2023-03-03T00:50:21.071Z,28.40
2023-03-03T00:51:21.060Z,28.80
2023-03-03T00:52:21.038Z,27.90
2023-03-03T00:53:21.016Z,28.00
2023-03-03T00:54:21.027Z,27.70
2023-03-03T00:55:21.048Z,28.60
2023-03-03T00:56:20.991Z,29.30
2023-03-03T00:57:20.988Z,28.20
2023-03-03T00:58:20.978Z,26.60
2023-03-03T00:59:20.975Z,27.50
2023-03-03T01:00:20.964Z,27.20
2023-03-03T01:01:21.008Z,26.10
2023-03-03T01:02:20.955Z,26.50
2023-03-03T01:03:20.918Z,26.00
2023-03-03T01:04:20.907Z,27.40
2023-03-03T01:05:20.920Z,26.10
2023-03-03T01:06:20.896Z,26.60
2023-03-03T01:07:20.894Z,26.90
2023-03-03T01:08:20.862Z,26.30
2023-03-03T01:09:20.857Z,27.00
2023-03-03T01:10:20.831Z,28.20
2023-03-03T01:11:20.837Z,27.60
2023-03-03T01:12:20.804Z,28.50
2023-03-03T01:13:20.825Z,27.60
2023-03-03T01:14:20.851Z,29.40
2023-03-03T01:15:20.797Z,30.00
2023-03-03T01:16:20.861Z,30.80
2023-03-03T01:17:20.784Z,30.00
2023-03-03T01:18:20.773Z,33.20
2023-03-03T01:19:20.740Z,31.40
2023-03-03T01:20:20.753Z,32.00
2023-03-03T01:21:20.732Z,29.60
2023-03-03T01:22:20.695Z,30.70
2023-03-03T01:23:20.742Z,29.50
2023-03-03T01:24:20.683Z,30.00
2023-03-03T01:25:20.722Z,27.60
2023-03-03T01:26:20.662Z,28.20
2023-03-03T01:27:20.648Z,25.90
2023-03-03T01:28:20.744Z,26.50
2023-03-03T01:29:20.620Z,27.10
2023-03-03T01:30:20.635Z,28.40
2023-03-03T01:31:20.626Z,26.80
2023-03-03T01:32:20.657Z,28.60
2023-03-03T01:33:20.600Z,27.60
2023-03-03T01:34:20.572Z,28.50
2023-03-03T01:35:20.666Z,27.00
2023-03-03T01:36:20.541Z,26.60
2023-03-03T01:37:20.534Z,27.00
2023-03-03T01:38:20.529Z,26.80
2023-03-03T01:39:20.530Z,27.50
2023-03-03T01:40:20.521Z,25.70
2023-03-03T01:41:20.507Z,26.10
2023-03-03T01:42:20.566Z,25.80
2023-03-03T01:43:20.478Z,25.10
2023-03-03T01:44:20.499Z,25.50
2023-03-03T01:45:20.471Z,24.20
2023-03-03T01:46:20.492Z,25.30
2023-03-03T01:47:20.428Z,24.90
2023-03-03T01:48:20.412Z,24.90
2023-03-03T01:49:20.410Z,25.70
2023-03-03T01:50:20.420Z,25.70
2023-03-03T01:51:20.389Z,25.50
2023-03-03T01:52:20.395Z,26.60
2023-03-03T01:53:20.384Z,25.70
2023-03-03T01:54:20.397Z,27.70
2023-03-03T01:55:20.392Z,25.10
2023-03-03T01:56:20.365Z,27.70
2023-03-03T01:57:20.319Z,27.40
2023-03-03T01:58:20.310Z,27.90
2023-03-03T01:59:20.297Z,26.50
2023-03-03T02:00:20.320Z,28.30
2023-03-03T02:01:20.361Z,28.30
2023-03-03T02:02:20.279Z,27.30
2023-03-03T02:03:20.284Z,28.00
2023-03-03T02:04:20.251Z,27.00
2023-03-03T02:05:20.238Z,28.30
2023-03-03T02:06:20.239Z,27.80
2023-03-03T02:07:20.247Z,29.00
2023-03-03T02:08:20.231Z,28.30
2023-03-03T02:09:20.211Z,27.60
2023-03-03T02:10:20.200Z,28.50
2023-03-03T02:11:20.208Z,28.80
2023-03-03T02:12:20.154Z,25.80
2023-03-03T02:13:20.178Z,30.00
2023-03-03T02:14:20.141Z,29.60
2023-03-03T02:15:20.146Z,27.70
2023-03-03T02:16:20.242Z,30.10
2023-03-03T02:17:20.119Z,28.00
2023-03-03T02:18:20.100Z,28.40
2023-03-03T02:19:20.079Z,29.20
2023-03-03T02:20:20.072Z,27.70
2023-03-03T02:21:20.105Z,27.50
2023-03-03T02:22:20.070Z,30.10
2023-03-03T02:23:20.036Z,30.30
2023-03-03T02:24:20.047Z,30.40
2023-03-03T02:25:20.014Z,29.50
2023-03-03T02:26:20.041Z,29.00
2023-03-03T02:27:20.046Z,29.00
2023-03-03T02:28:19.990Z,28.20
2023-03-03T02:29:19.979Z,28.20
2023-03-03T02:30:19.971Z,28.40
2023-03-03T02:31:19.991Z,27.40
2023-03-03T02:32:19.976Z,28.70
2023-03-03T02:33:19.936Z,28.50
2023-03-03T02:34:19.916Z,26.90
2023-03-03T02:35:19.965Z,27.20
2023-03-03T02:36:19.929Z,28.20
2023-03-03T02:37:19.931Z,28.50
2023-03-03T02:38:19.880Z,30.20
2023-03-03T02:39:19.877Z,29.20
2023-03-03T02:40:19.860Z,28.20
2023-03-03T02:41:19.863Z,29.60
2023-03-03T02:42:19.831Z,31.50
2023-03-03T02:43:19.846Z,30.10
2023-03-03T02:44:19.838Z,29.20
2023-03-03T02:45:19.805Z,29.00
2023-03-03T02:46:19.787Z,30.40
2023-03-03T02:47:19.774Z,29.50
2023-03-03T02:48:19.799Z,30.30
2023-03-03T02:49:19.750Z,32.40
2023-03-03T02:50:19.748Z,33.00
2023-03-03T02:51:19.757Z,32.70
2023-03-03T02:52:19.718Z,32.90
2023-03-03T02:53:19.730Z,33.50
2023-03-03T02:54:19.695Z,31.50
2023-03-03T02:55:19.686Z,31.80
2023-03-03T02:56:19.715Z,29.30
2023-03-03T02:57:19.661Z,28.80
2023-03-03T02:58:19.653Z,29.40
2023-03-03T02:59:19.651Z,28.70
2023-03-03T03:00:19.659Z,27.70
2023-03-03T03:01:19.691Z,27.60
2023-03-03T03:02:19.627Z,27.90
2023-03-03T03:03:19.596Z,27.00
2023-03-03T03:04:19.694Z,28.10
2023-03-03T03:05:19.571Z,28.40
2023-03-03T03:06:19.557Z,26.10
2023-03-03T03:07:19.576Z,26.40
2023-03-03T03:08:19.550Z,26.40
2023-03-03T03:09:19.533Z,26.60
2023-03-03T03:10:19.519Z,26.40
2023-03-03T03:11:19.503Z,27.30
2023-03-03T03:12:27.671Z,25.20
2023-03-03T03:13:19.485Z,26.30
2023-03-03T03:14:19.472Z,25.20
2023-03-03T03:15:19.478Z,26.00
2023-03-03T03:16:19.489Z,26.50
2023-03-03T03:17:19.469Z,27.70
2023-03-03T03:18:19.428Z,26.80
2023-03-03T03:19:19.422Z,26.10
2023-03-03T03:20:19.408Z,24.70
2023-03-03T03:21:19.425Z,25.50
2023-03-03T03:22:19.392Z,23.70
2023-03-03T03:23:19.412Z,26.00
2023-03-03T03:24:19.371Z,24.00
2023-03-03T03:25:19.359Z,24.30
2023-03-03T03:26:19.366Z,23.80
2023-03-03T03:27:19.374Z,24.00
2023-03-03T03:28:19.314Z,25.10
2023-03-03T03:29:19.306Z,24.10
2023-03-03T03:30:19.333Z,23.40
2023-03-03T03:31:19.319Z,26.40
2023-03-03T03:32:19.378Z,24.20
2023-03-03T03:33:19.277Z,23.90
2023-03-03T03:34:19.253Z,25.50
2023-03-03T03:35:19.254Z,24.50
2023-03-03T03:36:19.258Z,24.10
2023-03-03T03:37:19.219Z,23.80
2023-03-03T03:38:19.210Z,25.70
2023-03-03T03:39:19.207Z,26.50
2023-03-03T03:40:19.216Z,22.30
2023-03-03T03:41:19.185Z,24.80
2023-03-03T03:42:19.185Z,24.50
2023-03-03T03:43:19.155Z,25.00
2023-03-03T03:44:19.160Z,25.10
2023-03-03T03:45:19.133Z,25.00
2023-03-03T03:46:19.154Z,27.10
2023-03-03T03:47:19.304Z,24.80
2023-03-03T03:48:19.097Z,25.70
2023-03-03T03:49:20.874Z,25.70
2023-03-03T03:50:19.151Z,24.40
2023-03-03T03:51:19.271Z,24.70
2023-03-03T03:52:19.162Z,26.20
2023-03-03T03:53:19.133Z,26.90
2023-03-03T03:54:19.118Z,25.50
2023-03-03T03:55:19.140Z,26.40
2023-03-03T03:56:19.137Z,27.80
2023-03-03T03:57:19.023Z,26.50
2023-03-03T03:58:19.176Z,25.70
2023-03-03T03:59:18.991Z,24.10
2023-03-03T04:00:19.048Z,25.10
2023-03-03T04:01:19.042Z,24.00
2023-03-03T04:02:19.181Z,24.10
2023-03-03T04:03:19.157Z,24.70
2023-03-03T04:04:19.001Z,25.10
2023-03-03T04:05:19.124Z,25.90
2023-03-03T04:06:19.034Z,25.50
2023-03-03T04:07:19.075Z,25.30
2023-03-03T04:08:19.050Z,24.90
2023-03-03T04:09:18.954Z,24.60
2023-03-03T04:10:19.023Z,24.10
2023-03-03T04:11:18.870Z,23.90
2023-03-03T04:12:19.041Z,23.10
2023-03-03T04:13:18.928Z,22.40
2023-03-03T04:14:18.904Z,23.50
2023-03-03T04:15:18.961Z,22.80
2023-03-03T04:16:18.840Z,22.80
2023-03-03T04:17:18.847Z,21.00
2023-03-03T04:18:18.936Z,21.90
2023-03-03T04:19:19.317Z,21.70
2023-03-03T04:20:18.839Z,23.90
2023-03-03T04:21:18.869Z,19.80
2023-03-03T04:22:18.824Z,21.00
2023-03-03T04:23:18.814Z,22.40
2023-03-03T04:24:18.903Z,21.10
2023-03-03T04:25:18.781Z,19.40
2023-03-03T04:26:19.200Z,19.60
2023-03-03T04:27:18.819Z,19.70
2023-03-03T04:28:18.776Z,20.50
2023-03-03T04:29:18.828Z,20.10
2023-03-03T04:30:18.745Z,20.20
2023-03-03T04:31:18.734Z,17.70
2023-03-03T04:32:18.805Z,20.40
2023-03-03T04:33:18.700Z,18.60
2023-03-03T04:34:18.734Z,19.10
2023-03-03T04:35:18.667Z,20.20
2023-03-03T04:36:18.720Z,17.60
2023-03-03T04:37:18.720Z,19.90
2023-03-03T04:38:18.613Z,18.70
2023-03-03T04:39:18.686Z,20.50
2023-03-03T04:40:18.701Z,18.50
2023-03-03T04:41:18.681Z,20.30
2023-03-03T04:42:18.669Z,19.40
2023-03-03T04:43:18.682Z,18.50
2023-03-03T04:44:18.541Z,18.50
2023-03-03T04:45:18.689Z,21.30
2023-03-03T04:46:18.612Z,20.20
2023-03-03T04:47:18.480Z,20.20
2023-03-03T04:48:18.467Z,18.80
2023-03-03T04:49:18.447Z,18.40
2023-03-03T04:50:18.464Z,19.30
2023-03-03T04:51:18.443Z,18.80
2023-03-03T04:52:18.480Z,19.90
2023-03-03T04:53:18.413Z,19.00
2023-03-03T04:54:18.840Z,19.50
2023-03-03T04:55:18.418Z,19.00
2023-03-03T04:56:18.370Z,21.50
2023-03-03T04:57:18.372Z,20.40
2023-03-03T04:58:18.370Z,20.40
2023-03-03T04:59:18.337Z,19.50
2023-03-03T05:00:18.335Z,20.20
2023-03-03T05:01:18.329Z,20.60
2023-03-03T05:02:18.323Z,19.70
2023-03-03T05:03:18.316Z,19.90
2023-03-03T05:04:18.309Z,20.70
2023-03-03T05:05:18.271Z,21.80
2023-03-03T05:06:18.254Z,19.30
2023-03-03T05:07:18.263Z,20.50
2023-03-03T05:08:18.233Z,20.40
2023-03-03T05:09:18.312Z,19.20
2023-03-03T05:10:18.211Z,18.70
2023-03-03T05:11:18.212Z,19.40
2023-03-03T05:12:18.201Z,18.30
2023-03-03T05:13:18.268Z,17.70
2023-03-03T05:14:18.177Z,17.00
2023-03-03T05:15:18.158Z,19.10
2023-03-03T05:16:18.253Z,19.00
2023-03-03T05:17:18.163Z,19.70
2023-03-03T05:18:18.381Z,19.60
2023-03-03T05:19:18.207Z,19.10
2023-03-03T05:20:18.105Z,18.60
2023-03-03T05:21:18.109Z,18.50
2023-03-03T05:22:18.116Z,20.80
2023-03-03T05:23:18.093Z,20.20
2023-03-03T05:24:18.341Z,17.70
2023-03-03T05:25:18.049Z,19.60
2023-03-03T05:26:18.058Z,18.70
2023-03-03T05:27:18.028Z,19.40
2023-03-03T05:28:18.030Z,18.80
2023-03-03T05:29:18.003Z,19.10
2023-03-03T05:30:17.987Z,19.40
2023-03-03T05:31:18.061Z,17.00
2023-03-03T05:32:18.001Z,19.40
2023-03-03T05:33:17.956Z,18.60
2023-03-03T05:34:17.956Z,17.40
2023-03-03T05:35:17.971Z,19.50
2023-03-03T05:36:17.948Z,19.10
2023-03-03T05:37:17.915Z,16.60
2023-03-03T05:38:17.924Z,17.50
2023-03-03T05:39:17.928Z,17.80
2023-03-03T05:40:17.906Z,19.60
2023-03-03T05:41:17.870Z,17.90
2023-03-03T05:42:17.858Z,18.70
2023-03-03T05:43:17.854Z,18.20
2023-03-03T05:44:20.245Z,18.40
2023-03-03T05:45:17.833Z,18.80
2023-03-03T05:46:17.903Z,19.70
2023-03-03T05:47:17.808Z,18.50
2023-03-03T05:48:17.791Z,17.70
2023-03-03T05:49:17.829Z,17.60
2023-03-03T05:50:17.776Z,17.90
2023-03-03T05:51:17.769Z,18.30
2023-03-03T05:52:17.758Z,16.40
2023-03-03T05:53:17.738Z,17.90
2023-03-03T05:54:17.764Z,17.90
2023-03-03T05:55:17.749Z,16.30
2023-03-03T05:56:17.707Z,16.90
2023-03-03T05:57:17.701Z,15.70
2023-03-03T05:58:17.706Z,16.70
2023-03-03T05:59:17.698Z,16.80
2023-03-03T06:00:17.700Z,15.40
2023-03-03T06:01:17.675Z,15.80
2023-03-03T06:02:17.658Z,15.90
2023-03-03T06:03:17.688Z,15.50
2023-03-03T06:04:17.696Z,16.30
2023-03-03T06:05:17.609Z,17.50
2023-03-03T06:06:17.710Z,17.30
2023-03-03T06:07:17.695Z,15.50
2023-03-03T06:08:17.596Z,17.30
2023-03-03T06:09:17.593Z,16.30
2023-03-03T06:10:17.559Z,17.70
2023-03-03T06:11:17.574Z,16.90
2023-03-03T06:12:17.542Z,15.90
2023-03-03T06:13:17.572Z,17.20
2023-03-03T06:14:17.569Z,18.70
2023-03-03T06:15:17.541Z,17.80
2023-03-03T06:16:17.512Z,16.00
2023-03-03T06:17:17.475Z,18.80
2023-03-03T06:18:17.493Z,17.10
2023-03-03T06:19:17.479Z,16.00
2023-03-03T06:20:17.461Z,18.70
2023-03-03T06:21:17.437Z,17.90
2023-03-03T06:22:17.426Z,17.20
2023-03-03T06:23:17.410Z,17.10
2023-03-03T06:24:17.495Z,15.30
2023-03-03T06:25:17.447Z,16.80
2023-03-03T06:26:17.394Z,17.00
2023-03-03T06:27:17.422Z,17.80
2023-03-03T06:28:17.362Z,17.80
2023-03-03T06:29:17.361Z,17.00
2023-03-03T06:30:17.344Z,16.20
2023-03-03T06:31:17.494Z,17.40
2023-03-03T06:32:17.401Z,15.50
2023-03-03T06:33:17.373Z,16.50
2023-03-03T06:34:17.289Z,17.30
2023-03-03T06:35:17.409Z,16.90
2023-03-03T06:36:17.312Z,18.40
2023-03-03T06:37:17.312Z,17.40
2023-03-03T06:38:17.288Z,16.10
2023-03-03T06:39:17.362Z,18.50
2023-03-03T06:40:17.228Z,16.70
2023-03-03T06:41:17.412Z,19.00
2023-03-03T06:42:17.213Z,18.30
2023-03-03T06:43:17.434Z,18.60
2023-03-03T06:44:17.179Z,19.20
2023-03-03T06:45:17.194Z,18.40
2023-03-03T06:46:17.186Z,17.80
2023-03-03T06:47:17.161Z,16.10
2023-03-03T06:48:17.144Z,16.90
2023-03-03T06:49:17.141Z,16.10
2023-03-03T06:50:17.133Z,15.90
2023-03-03T06:51:17.108Z,14.20
2023-03-03T06:52:17.114Z,15.60
2023-03-03T06:53:17.085Z,15.00
2023-03-03T06:54:17.084Z,13.80
2023-03-03T06:55:17.068Z,13.50
2023-03-03T06:56:17.050Z,13.90
2023-03-03T06:57:17.060Z,12.20
2023-03-03T06:58:17.023Z,13.10
2023-03-03T06:59:17.076Z,12.70
2023-03-03T07:00:17.025Z,11.30
2023-03-03T07:01:17.048Z,13.10
2023-03-03T07:02:17.010Z,10.90
2023-03-03T07:03:16.989Z,10.70
2023-03-03T07:04:17.041Z,11.20
2023-03-03T07:05:16.959Z,10.90
2023-03-03T07:06:16.977Z,11.10
2023-03-03T07:07:16.939Z,10.60
2023-03-03T07:08:16.963Z,11.20
2023-03-03T07:09:16.935Z,10.10
2023-03-03T07:10:16.915Z,11.60
2023-03-03T07:11:16.910Z,11.00
2023-03-03T07:12:16.890Z,11.00
2023-03-03T07:13:16.914Z,13.10
2023-03-03T07:14:16.870Z,12.70
2023-03-03T07:15:16.927Z,12.60
2023-03-03T07:16:16.931Z,12.80
2023-03-03T07:17:16.848Z,12.70
2023-03-03T07:18:16.849Z,12.70
2023-03-03T07:19:16.813Z,12.80
2023-03-03T07:20:16.798Z,12.50
2023-03-03T07:21:16.849Z,11.70
2023-03-03T07:22:16.784Z,12.70
2023-03-03T07:23:16.800Z,12.40
2023-03-03T07:24:16.759Z,12.80
2023-03-03T07:25:16.753Z,11.70
2023-03-03T07:26:16.769Z,10.30
2023-03-03T07:27:16.737Z,11.20
2023-03-03T07:28:16.714Z,11.80
2023-03-03T07:29:16.714Z,11.40
2023-03-03T07:30:16.704Z,10.80
2023-03-03T07:31:16.780Z,10.80
2023-03-03T07:32:16.823Z,10.30
2023-03-03T07:33:16.697Z,11.30
2023-03-03T07:34:16.683Z,10.70
2023-03-03T07:35:16.641Z,11.20
2023-03-03T07:36:16.629Z,11.10
2023-03-03T07:37:16.629Z,12.20
2023-03-03T07:38:16.619Z,10.60
2023-03-03T07:39:16.629Z,11.50
2023-03-03T07:40:16.594Z,12.00
2023-03-03T07:41:16.580Z,11.10
2023-03-03T07:42:16.583Z,10.90
2023-03-03T07:43:16.556Z,10.50
2023-03-03T07:44:16.550Z,10.80
2023-03-03T07:45:16.586Z,10.30
2023-03-03T07:46:16.595Z,10.00
2023-03-03T07:47:16.532Z,10.50
2023-03-03T07:48:16.562Z,9.60
2023-03-03T07:49:16.503Z,9.90
2023-03-03T07:50:16.508Z,9.10
2023-03-03T07:51:16.592Z,9.60
2023-03-03T07:52:16.463Z,10.00
2023-03-03T07:53:16.469Z,10.00
2023-03-03T07:54:16.440Z,9.30
2023-03-03T07:55:16.428Z,9.70
2023-03-03T07:56:16.416Z,10.60
2023-03-03T07:57:16.434Z,10.60
2023-03-03T07:58:16.448Z,11.60
2023-03-03T07:59:16.388Z,10.90
2023-03-03T08:00:16.442Z,11.10
2023-03-03T08:01:16.398Z,10.60
2023-03-03T08:02:16.377Z,10.70
2023-03-03T08:03:16.364Z,10.90
2023-03-03T08:04:16.377Z,10.80
2023-03-03T08:05:16.457Z,10.40
2023-03-03T08:06:16.331Z,10.50
2023-03-03T08:07:16.310Z,10.50
2023-03-03T08:08:16.287Z,9.40
2023-03-03T08:09:16.283Z,10.70
2023-03-03T08:10:16.288Z,10.30
2023-03-03T08:11:16.279Z,11.10
2023-03-03T08:12:16.238Z,11.40
2023-03-03T08:13:16.220Z,11.80
2023-03-03T08:14:16.234Z,11.50
2023-03-03T08:15:16.205Z,11.40
2023-03-03T08:16:16.257Z,10.80
2023-03-03T08:17:16.179Z,12.30
2023-03-03T08:18:16.160Z,11.70
2023-03-03T08:19:16.196Z,11.20
2023-03-03T08:20:16.161Z,11.90
2023-03-03T08:21:16.152Z,12.00
2023-03-03T08:22:16.117Z,12.90
2023-03-03T08:23:16.128Z,12.20
2023-03-03T08:24:16.113Z,12.40
2023-03-03T08:25:16.097Z,11.60
2023-03-03T08:26:16.076Z,12.60
2023-03-03T08:27:16.064Z,12.00
2023-03-03T08:28:16.079Z,11.20
2023-03-03T08:29:16.041Z,12.40
2023-03-03T08:30:16.047Z,11.80
2023-03-03T08:31:27.761Z,10.90
2023-03-03T08:32:17.129Z,11.50
2023-03-03T08:33:16.004Z,10.80
2023-03-03T08:34:15.982Z,11.30
2023-03-03T08:35:15.997Z,10.90
2023-03-03T08:36:15.982Z,10.00
2023-03-03T08:37:15.957Z,12.00
2023-03-03T08:38:15.952Z,11.40
2023-03-03T08:39:15.930Z,11.90
2023-03-03T08:40:15.914Z,12.80
2023-03-03T08:41:15.933Z,11.60
2023-03-03T08:42:16.340Z,12.10
2023-03-03T08:43:15.917Z,12.10
2023-03-03T08:44:15.918Z,11.60
2023-03-03T08:45:15.866Z,11.00
2023-03-03T08:46:15.857Z,10.80
2023-03-03T08:47:15.859Z,11.50
2023-03-03T08:48:15.839Z,11.10
2023-03-03T08:49:15.828Z,11.20
2023-03-03T08:50:15.805Z,11.50
2023-03-03T08:51:15.852Z,11.60
2023-03-03T08:52:15.810Z,11.90
2023-03-03T08:53:15.801Z,11.30
2023-03-03T08:54:15.777Z,11.70
2023-03-03T08:55:15.759Z,11.50
2023-03-03T08:56:15.754Z,12.10
2023-03-03T08:57:15.734Z,12.10
2023-03-03T08:58:15.747Z,11.80
2023-03-03T08:59:15.717Z,11.90
2023-03-03T09:00:15.713Z,12.00
2023-03-03T09:01:15.714Z,11.90
2023-03-03T09:02:15.680Z,12.00
2023-03-03T09:03:15.667Z,11.30
2023-03-03T09:04:15.693Z,11.20
2023-03-03T09:05:15.675Z,11.30
2023-03-03T09:06:15.645Z,11.10
2023-03-03T09:07:15.643Z,11.00
2023-03-03T09:08:15.611Z,11.40
2023-03-03T09:09:15.610Z,11.40
2023-03-03T09:10:15.656Z,11.70
2023-03-03T09:11:15.586Z,11.20
2023-03-03T09:12:15.568Z,11.70
2023-03-03T09:13:15.562Z,11.90
2023-03-03T09:14:15.580Z,11.50
2023-03-03T09:15:15.570Z,11.80
2023-03-03T09:16:15.581Z,11.40
2023-03-03T09:17:15.573Z,12.00
2023-03-03T09:18:15.522Z,12.40
2023-03-03T09:19:15.497Z,12.70
2023-03-03T09:20:15.526Z,12.60
2023-03-03T09:21:15.466Z,12.70
2023-03-03T09:22:15.476Z,13.40
2023-03-03T09:23:15.468Z,13.00
2023-03-03T09:24:15.475Z,12.80
2023-03-03T09:25:15.421Z,12.20
2023-03-03T09:26:15.440Z,13.10
2023-03-03T09:27:15.438Z,13.30
2023-03-03T09:28:15.533Z,13.20
2023-03-03T09:29:15.407Z,12.90
2023-03-03T09:30:15.560Z,13.40
2023-03-03T09:31:15.411Z,13.80
2023-03-03T09:32:15.454Z,12.90
2023-03-03T09:33:15.339Z,13.40
2023-03-03T09:34:15.334Z,13.70
2023-03-03T09:35:15.327Z,12.20
2023-03-03T09:36:15.301Z,12.80
2023-03-03T09:37:15.596Z,13.10
2023-03-03T09:38:15.305Z,13.70
2023-03-03T09:39:15.295Z,13.50
2023-03-03T09:40:15.263Z,14.40
2023-03-03T09:41:15.265Z,14.70
2023-03-03T09:42:15.260Z,14.00
2023-03-03T09:43:15.217Z,14.60
2023-03-03T09:44:15.216Z,14.80
2023-03-03T09:45:15.214Z,13.50
2023-03-03T09:46:15.228Z,14.70
2023-03-03T09:47:15.244Z,14.90
2023-03-03T09:48:15.167Z,14.50
2023-03-03T09:49:15.184Z,15.50
2023-03-03T09:50:15.151Z,14.90
2023-03-03T09:51:15.270Z,15.60
2023-03-03T09:52:15.150Z,14.90
2023-03-03T09:53:15.114Z,15.90
2023-03-03T09:54:15.102Z,15.50
2023-03-03T09:55:15.105Z,16.10
2023-03-03T09:56:15.102Z,16.40
2023-03-03T09:57:15.071Z,16.60
2023-03-03T09:58:15.062Z,16.10
2023-03-03T09:59:15.075Z,15.30
2023-03-03T10:00:15.035Z,16.30
2023-03-03T10:01:15.043Z,16.80
2023-03-03T10:02:15.049Z,15.10
2023-03-03T10:03:15.089Z,14.90
2023-03-03T10:04:15.122Z,15.30
2023-03-03T10:05:14.984Z,15.70
2023-03-03T10:06:14.994Z,14.60
2023-03-03T10:07:15.098Z,14.30
2023-03-03T10:08:15.084Z,14.40
2023-03-03T10:09:15.146Z,14.70
2023-03-03T10:10:15.050Z,14.70
2023-03-03T10:11:15.025Z,15.00
2023-03-03T10:12:17.669Z,14.30
2023-03-03T10:13:15.002Z,16.20
2023-03-03T10:14:15.039Z,14.80
2023-03-03T10:15:14.951Z,14.60
2023-03-03T10:16:15.042Z,15.10
2023-03-03T10:17:14.990Z,14.10
2023-03-03T10:18:15.159Z,14.20
2023-03-03T10:19:14.999Z,14.50
2023-03-03T10:20:14.956Z,14.30
2023-03-03T10:21:14.961Z,15.50
2023-03-03T10:22:14.968Z,14.80
2023-03-03T10:23:14.943Z,14.50
2023-03-03T10:24:14.898Z,14.50
2023-03-03T10:25:14.876Z,14.10
2023-03-03T10:26:14.888Z,15.00
2023-03-03T10:27:14.895Z,14.10
2023-03-03T10:28:14.816Z,14.10
2023-03-03T10:29:14.772Z,13.70
2023-03-03T10:30:14.875Z,13.90
2023-03-03T10:31:17.979Z,14.90
2023-03-03T10:32:14.984Z,14.80
2023-03-03T10:33:15.594Z,14.10
2023-03-03T10:34:15.300Z,14.40
2023-03-03T10:35:15.444Z,14.10
2023-03-03T10:36:15.423Z,15.30
2023-03-03T10:37:14.744Z,14.30
2023-03-03T10:38:14.932Z,14.60
2023-03-03T10:39:14.936Z,13.30
2023-03-03T10:40:14.614Z,13.60
2023-03-03T10:41:14.724Z,13.10
2023-03-03T10:42:14.799Z,13.00
2023-03-03T10:43:26.087Z,13.10
2023-03-03T10:44:15.554Z,13.10
2023-03-03T10:45:14.583Z,13.70
2023-03-03T10:46:14.619Z,12.90
2023-03-03T10:47:14.801Z,13.40
2023-03-03T10:48:14.570Z,13.70
2023-03-03T10:49:14.512Z,13.50
2023-03-03T10:50:14.614Z,13.40
2023-03-03T10:51:14.522Z,12.60
2023-03-03T10:52:14.469Z,13.30
2023-03-03T10:53:14.453Z,13.20
2023-03-03T10:54:14.448Z,13.30
2023-03-03T10:55:14.600Z,13.40
2023-03-03T10:56:14.649Z,13.30
2023-03-03T10:57:15.280Z,13.60
2023-03-03T10:58:14.410Z,12.80
2023-03-03T10:59:14.419Z,13.20
2023-03-03T11:00:14.584Z,12.60
2023-03-03T11:01:15.344Z,12.50
2023-03-03T11:02:14.646Z,12.50
2023-03-03T11:03:14.441Z,12.20
2023-03-03T11:04:14.357Z,12.40
2023-03-03T11:05:14.460Z,12.50
2023-03-03T11:06:14.466Z,12.90
2023-03-03T11:07:14.295Z,12.50
2023-03-03T11:08:14.287Z,12.70
2023-03-03T11:09:14.276Z,12.00
2023-03-03T11:10:14.271Z,12.10
2023-03-03T11:11:14.280Z,12.20
2023-03-03T11:12:14.362Z,12.00
2023-03-03T11:13:14.230Z,12.40
2023-03-03T11:14:14.227Z,12.00
2023-03-03T11:15:14.279Z,12.30
2023-03-03T11:16:14.351Z,12.40
2023-03-03T11:17:14.323Z,11.60
2023-03-03T11:18:14.323Z,11.80
2023-03-03T11:19:14.167Z,10.90
2023-03-03T11:20:14.175Z,11.50
2023-03-03T11:21:14.143Z,11.80
2023-03-03T11:22:14.140Z,11.10
2023-03-03T11:23:14.131Z,10.80
2023-03-03T11:24:14.125Z,11.10
2023-03-03T11:25:14.130Z,11.00
2023-03-03T11:26:14.090Z,11.10
2023-03-03T11:27:14.078Z,11.60
2023-03-03T11:28:14.109Z,11.40
2023-03-03T11:29:14.059Z,11.00
2023-03-03T11:30:14.045Z,10.30
2023-03-03T11:31:14.111Z,11.10
2023-03-03T11:32:14.097Z,11.20
2023-03-03T11:33:14.024Z,11.10
2023-03-03T11:34:14.026Z,10.70
2023-03-03T11:35:14.002Z,11.10
2023-03-03T11:36:13.982Z,10.90
2023-03-03T11:37:13.976Z,11.70
2023-03-03T11:38:13.956Z,9.90
2023-03-03T11:39:13.965Z,10.60
2023-03-03T11:40:13.943Z,10.90
2023-03-03T11:41:13.944Z,11.00
2023-03-03T11:42:13.917Z,11.20
2023-03-03T11:43:20.662Z,11.20
2023-03-03T11:44:14.924Z,10.80
2023-03-03T11:45:13.882Z,10.90
2023-03-03T11:46:13.936Z,10.30
2023-03-03T11:47:13.876Z,10.60
2023-03-03T11:48:13.855Z,10.40
2023-03-03T11:49:13.830Z,10.40
2023-03-03T11:50:13.851Z,10.20
2023-03-03T11:51:13.848Z,9.50
2023-03-03T11:52:13.809Z,9.50
2023-03-03T11:53:13.793Z,10.10
2023-03-03T11:54:13.782Z,9.90
2023-03-03T11:55:13.771Z,10.30
2023-03-03T11:56:13.759Z,9.60
2023-03-03T11:57:13.776Z,9.40
2023-03-03T11:58:13.744Z,10.10
2023-03-03T11:59:13.730Z,9.90
2023-03-03T12:00:13.723Z,9.50
2023-03-03T12:01:13.747Z,9.40
2023-03-03T12:02:13.732Z,9.50
2023-03-03T12:03:13.701Z,10.20
2023-03-03T12:04:13.681Z,8.80
2023-03-03T12:05:13.686Z,9.70
2023-03-03T12:06:13.702Z,8.60
2023-03-03T12:07:19.102Z,9.40
2023-03-03T12:08:14.692Z,8.60
2023-03-03T12:09:13.661Z,8.50
2023-03-03T12:10:13.664Z,8.40
2023-03-03T12:11:13.667Z,8.70
2023-03-03T12:12:13.654Z,8.50
2023-03-03T12:13:13.592Z,7.90
2023-03-03T12:14:13.584Z,8.40
2023-03-03T12:15:13.562Z,8.50
2023-03-03T12:16:13.631Z,8.60
2023-03-03T12:17:13.647Z,8.60
2023-03-03T12:18:13.542Z,8.40
2023-03-03T12:19:13.534Z,8.10
2023-03-03T12:20:13.491Z,8.90
2023-03-03T12:21:13.489Z,8.10
2023-03-03T12:22:13.516Z,7.60
2023-03-03T12:23:13.511Z,8.50
2023-03-03T12:24:13.489Z,8.20
2023-03-03T12:25:13.459Z,7.90
2023-03-03T12:26:13.465Z,7.90
2023-03-03T12:27:13.438Z,7.80
2023-03-03T12:28:13.423Z,7.50
2023-03-03T12:29:13.409Z,7.30
2023-03-03T12:30:13.402Z,7.90
2023-03-03T12:31:13.512Z,7.70
2023-03-03T12:32:13.422Z,7.60
2023-03-03T12:33:13.372Z,7.00
2023-03-03T12:34:13.381Z,7.10
2023-03-03T12:35:13.376Z,7.50
2023-03-03T12:36:13.360Z,7.80
2023-03-03T12:37:13.330Z,7.80
2023-03-03T12:38:13.340Z,8.00
2023-03-03T12:39:13.692Z,7.90
2023-03-03T12:40:13.315Z,6.70
2023-03-03T12:41:13.303Z,7.40
2023-03-03T12:42:13.449Z,7.60
2023-03-03T12:43:13.265Z,7.90
2023-03-03T12:44:13.268Z,7.50
2023-03-03T12:45:13.276Z,7.60
2023-03-03T12:46:13.259Z,7.40
2023-03-03T12:47:13.226Z,7.80
2023-03-03T12:48:13.213Z,8.40
2023-03-03T12:49:13.206Z,7.40
2023-03-03T12:50:13.189Z,7.60
2023-03-03T12:51:13.237Z,7.20
2023-03-03T12:52:13.168Z,7.50
2023-03-03T12:53:13.148Z,7.40
2023-03-03T12:54:13.168Z,7.40